Time;durP1;ratioP1;P1;durP2;ratioP2;P2;SDS_P1;SDS_P2;PMS_P1;PMS_P2;Temp;Humidity;BMP_temperature;BMP_pressure;BME280_temperature;BME280_humidity;BME280_pressure;Samples;Min_cycle;Max_cycle;Signal;HPM_P1;HPM_P2
2023/03/17 00:01:54;;;;;;;0.50;0.50;;;;;;;3.81;60.09;96519.44;5096323;28;20044;-63
2023/03/17 00:04:24;;;;;;;0.63;0.43;;;;;;;3.77;59.91;96523.75;5096262;28;20048;-63
2023/03/17 00:06:52;;;;;;;0.38;0.38;;;;;;;3.74;60.02;96503.13;5096347;28;20505;-62
2023/03/17 00:09:21;;;;;;;0.40;0.40;;;;;;;3.79;60.21;96522.03;5096197;28;20507;-65
2023/03/17 00:11:48;;;;;;;0.70;0.70;;;;;;;3.81;60.03;96524.59;5096232;28;20040;-64
2023/03/17 00:14:15;;;;;;;0.60;0.60;;;;;;;3.81;60.09;96527.19;5096033;28;20050;-62
2023/03/17 00:16:44;;;;;;;0.70;0.70;;;;;;;3.79;60.14;96516.00;5095965;28;20048;-62
2023/03/17 00:19:16;;;;;;;0.75;0.75;;;;;;;3.74;60.62;96518.66;5096022;28;20040;-63
2023/03/17 00:21:45;;;;;;;0.98;0.90;;;;;;;3.69;60.62;96519.56;5095984;28;20497;-64
2023/03/17 00:24:13;;;;;;;1.50;1.07;;;;;;;3.63;60.74;96516.19;5095952;28;20070;-64
2023/03/17 00:26:41;;;;;;;1.58;0.95;;;;;;;3.63;60.99;96517.91;5095720;28;20272;-63
2023/03/17 00:29:08;;;;;;;1.33;1.23;;;;;;;3.58;61.06;96522.28;5095801;28;20051;-63
2023/03/17 00:31:36;;;;;;;1.30;1.20;;;;;;;3.59;61.07;96527.44;5095707;28;20051;-64
2023/03/17 00:34:04;;;;;;;1.33;1.23;;;;;;;3.45;61.70;96527.56;5095801;28;20076;-66
2023/03/17 00:36:33;;;;;;;2.20;1.75;;;;;;;3.40;62.04;96526.75;5095661;28;20055;-64
2023/03/17 00:39:02;;;;;;;2.67;1.77;;;;;;;3.36;62.11;96518.16;5095561;28;20126;-66
2023/03/17 00:41:29;;;;;;;2.83;1.88;;;;;;;3.29;62.56;96519.94;5095465;28;20141;-67
2023/03/17 00:43:56;;;;;;;2.35;2.10;;;;;;;3.28;62.59;96520.81;5095546;28;20048;-65
2023/03/17 00:46:27;;;;;;;2.00;1.73;;;;;;;3.22;63.15;96527.78;5095425;28;20047;-68
2023/03/17 00:48:55;;;;;;;2.00;1.63;;;;;;;3.19;63.14;96520.91;5095415;28;20052;-66
2023/03/17 00:51:23;;;;;;;3.53;2.50;;;;;;;3.10;63.36;96515.81;5095355;28;20494;-65
2023/03/17 00:53:50;;;;;;;4.53;2.15;;;;;;;3.03;64.01;96515.88;5095347;28;20075;-64
2023/03/17 00:56:21;;;;;;;2.70;2.20;;;;;;;2.99;63.99;96511.59;5094640;28;20127;-67
2023/03/17 00:58:48;;;;;;;3.75;2.50;;;;;;;3.09;64.02;96516.69;5095096;28;20052;-63
2023/03/17 01:01:17;;;;;;;2.70;2.20;;;;;;;3.14;63.81;96523.53;5095122;28;20093;-65
2023/03/17 01:03:44;;;;;;;3.33;2.20;;;;;;;3.12;63.87;96519.25;5094997;28;20044;-63
2023/03/17 01:06:14;;;;;;;3.17;2.03;;;;;;;3.13;63.78;96532.16;5094988;28;20079;-62
2023/03/17 01:08:43;;;;;;;2.92;2.30;;;;;;;3.12;63.84;96520.09;5094945;28;20109;-67
2023/03/17 01:11:17;;;;;;;3.30;2.28;;;;;;;3.18;63.98;96518.31;5094895;28;20079;-64
2023/03/17 01:13:46;;;;;;;3.35;2.22;;;;;;;3.19;63.71;96536.41;5094863;28;20091;-65
2023/03/17 01:16:14;;;;;;;2.67;2.13;;;;;;;3.15;63.27;96514.91;5094670;28;20134;-65
2023/03/17 01:18:41;;;;;;;5.88;2.25;;;;;;;3.05;64.20;96544.28;5094688;28;20052;-65
2023/03/17 01:21:09;;;;;;;4.03;2.72;;;;;;;3.04;64.20;96529.63;5094797;28;20048;-63
2023/03/17 01:23:36;;;;;;;2.30;2.03;;;;;;;2.98;64.15;96534.88;5094790;28;20055;-65
2023/03/17 01:26:05;;;;;;;5.00;2.17;;;;;;;2.90;64.40;96533.22;5094597;28;20077;-63
2023/03/17 01:28:32;;;;;;;3.20;2.40;;;;;;;2.88;64.16;96534.94;5094544;28;20105;-63
2023/03/17 01:31:01;;;;;;;3.28;2.38;;;;;;;2.90;64.63;96547.84;5094520;28;20127;-63
2023/03/17 01:33:28;;;;;;;3.72;2.35;;;;;;;2.87;64.61;96543.56;5094510;28;20055;-63
2023/03/17 01:35:56;;;;;;;5.70;2.33;;;;;;;2.84;64.60;96545.31;5094398;28;20048;-64
2023/03/17 01:38:23;;;;;;;2.50;2.30;;;;;;;2.83;65.01;96546.19;5094235;28;20052;-63
2023/03/17 01:40:52;;;;;;;3.03;2.63;;;;;;;2.77;65.21;96544.50;5094325;28;20112;-64
2023/03/17 01:43:22;;;;;;;5.28;2.22;;;;;;;2.73;64.91;96558.28;5094362;28;20040;-66
2023/03/17 01:46:26;;;;;;;2.97;2.22;;;;;;;2.70;65.23;96561.75;5094354;28;20547;-64
2023/03/17 01:49:16;;;;;;;3.33;2.72;;;;;;;2.72;65.45;96562.63;5012178;28;20057;-67
2023/03/17 01:51:51;;;;;;;2.28;1.70;;;;;;;2.65;65.58;96561.78;5088183;28;20062;-65
2023/03/17 01:54:24;;;;;;;2.05;1.50;;;;;;;2.59;65.29;96551.50;5094142;28;20044;-62
2023/03/17 01:56:54;;;;;;;3.50;2.30;;;;;;;2.58;65.89;96554.94;5094137;28;20143;-65
2023/03/17 01:59:27;;;;;;;3.90;2.08;;;;;;;2.55;66.00;96552.38;5094098;28;20408;-65
2023/03/17 02:02:01;;;;;;;2.88;2.15;;;;;;;2.50;66.32;96554.97;5093964;28;20135;-62
2023/03/17 02:04:30;;;;;;;3.47;2.05;;;;;;;2.47;66.19;96555.00;5094036;28;20040;-63
2023/03/17 02:06:57;;;;;;;4.47;1.58;;;;;;;2.46;66.24;96555.00;5093948;28;20451;-64
2023/03/17 02:09:25;;;;;;;2.78;2.15;;;;;;;2.43;65.88;96552.44;5092864;28;20083;-64
2023/03/17 02:11:52;;;;;;;4.20;2.80;;;;;;;2.39;65.92;96551.63;5093870;28;20409;-64
2023/03/17 02:14:19;;;;;;;2.75;2.30;;;;;;;2.36;66.20;96556.78;5093756;28;20044;-65
2023/03/17 02:16:47;;;;;;;3.42;2.13;;;;;;;2.37;65.41;96561.94;5093750;28;20101;-64
2023/03/17 02:19:15;;;;;;;2.45;1.83;;;;;;;2.32;65.75;96563.69;5093641;28;20052;-61
2023/03/17 02:21:45;;;;;;;3.45;2.63;;;;;;;2.38;65.91;96557.66;5093740;28;20125;-63
2023/03/17 02:24:23;;;;;;;2.17;1.67;;;;;;;2.34;65.67;96569.72;5093772;28;20051;-64
2023/03/17 02:26:54;;;;;;;1.92;1.67;;;;;;;2.25;65.96;96570.59;5093695;28;20288;-61
2023/03/17 02:29:21;;;;;;;;;;;;;;;2.24;66.25;96571.47;5094005;28;20105;-63
2023/03/17 02:31:48;;;;;;;3.35;2.15;;;;;;;2.18;65.94;96568.06;5093503;28;20007;-65
2023/03/17 02:34:15;;;;;;;6.68;1.63;;;;;;;2.22;65.93;96572.34;5093550;28;20139;-66
2023/03/17 02:36:45;;;;;;;3.30;1.58;;;;;;;2.18;66.38;96568.06;5093538;28;20054;-65
2023/03/17 02:39:12;;;;;;;4.30;1.90;;;;;;;2.17;65.88;96592.16;5093280;28;20055;-66
2023/03/17 02:41:40;;;;;;;2.47;1.58;;;;;;;2.20;65.76;96581.81;5093477;28;20138;-63
2023/03/17 02:44:07;;;;;;;2.67;1.70;;;;;;;2.22;65.61;96578.38;5093323;28;20048;-64
2023/03/17 02:46:35;;;;;;;1.92;1.58;;;;;;;2.28;65.76;96582.63;5093342;28;20052;-63
2023/03/17 02:49:02;;;;;;;1.95;1.58;;;;;;;2.26;65.73;96590.38;5093074;28;20085;-65
2023/03/17 02:51:29;;;;;;;3.33;2.03;;;;;;;2.31;65.26;96584.34;5093291;28;20094;-64
2023/03/17 02:53:58;;;;;;;1.75;1.58;;;;;;;2.32;65.22;96593.81;5093499;28;20044;-64
2023/03/17 02:56:25;;;;;;;2.15;1.60;;;;;;;2.37;64.90;96600.69;5093301;28;20040;-66
2023/03/17 02:58:52;;;;;;;2.55;1.55;;;;;;;2.44;64.06;96595.50;5093038;28;20052;-64
2023/03/17 03:01:19;;;;;;;8.38;1.52;;;;;;;2.45;63.83;96604.94;5093258;28;20429;-64
2023/03/17 03:03:47;;;;;;;2.17;1.55;;;;;;;2.47;63.09;96591.16;5093154;28;20044;-66
2023/03/17 03:06:14;;;;;;;2.47;1.60;;;;;;;2.57;62.97;96601.44;5093023;28;20095;-63
2023/03/17 03:08:41;;;;;;;3.38;1.90;;;;;;;2.64;62.57;96609.16;5093066;28;20101;-62
2023/03/17 03:11:09;;;;;;;2.58;1.63;;;;;;;2.60;62.01;96604.88;5093092;28;20089;-66
2023/03/17 03:13:37;;;;;;;2.20;1.20;;;;;;;2.60;62.07;96604.00;5092992;28;20044;-67
2023/03/17 03:16:05;;;;;;;1.98;1.60;;;;;;;2.59;61.78;96599.72;5093033;28;20089;-64
2023/03/17 03:18:32;;;;;;;1.52;1.10;;;;;;;2.61;61.97;96611.75;5092963;28;20128;-62
2023/03/17 03:20:59;;;;;;;3.42;1.38;;;;;;;2.61;61.79;96618.63;5096135;28;20047;-64
2023/03/17 03:23:27;;;;;;;1.90;1.65;;;;;;;2.61;61.90;96623.81;5097070;28;20257;-65
2023/03/17 03:25:54;;;;;;;2.95;1.70;;;;;;;2.54;61.49;96625.56;5097053;28;20047;-65
2023/03/17 03:28:23;;;;;;;2.47;1.40;;;;;;;2.59;61.42;96625.56;5097105;28;20055;-67
2023/03/17 03:30:50;;;;;;;3.45;1.77;;;;;;;2.54;61.18;96633.31;5097004;28;20036;-64
2023/03/17 03:33:18;;;;;;;2.05;1.27;;;;;;;2.53;61.04;96624.69;5096895;28;20079;-64
2023/03/17 03:35:45;;;;;;;2.53;1.50;;;;;;;2.53;61.62;96631.63;5096793;28;20139;-66
2023/03/17 03:38:12;;;;;;;3.10;1.52;;;;;;;2.51;61.10;96641.94;5096783;28;20105;-64
2023/03/17 03:40:40;;;;;;;3.38;1.60;;;;;;;2.48;61.50;96633.34;5096863;28;20480;-65
2023/03/17 03:43:07;;;;;;;2.17;1.50;;;;;;;2.47;61.52;96642.81;5096722;28;20082;-65
2023/03/17 03:45:35;;;;;;;2.00;1.52;;;;;;;2.45;61.18;96638.50;5096751;28;20048;-66
2023/03/17 03:48:03;;;;;;;1.67;1.20;;;;;;;2.44;60.82;96641.97;5096559;28;20047;-64
2023/03/17 03:50:30;;;;;;;1.40;1.27;;;;;;;2.44;60.76;96641.97;5096368;28;20083;-66
2023/03/17 03:52:57;;;;;;;3.08;1.42;;;;;;;2.40;60.80;96641.13;5096438;28;20474;-64
2023/03/17 03:55:24;;;;;;;1.73;1.27;;;;;;;2.37;60.88;96643.72;5096517;28;20079;-63
2023/03/17 03:57:51;;;;;;;1.52;1.42;;;;;;;2.38;60.76;96654.03;5096469;28;20551;-63
2023/03/17 04:00:19;;;;;;;2.78;1.23;;;;;;;2.38;60.90;96642.88;5096350;28;20481;-64
2023/03/17 04:02:48;;;;;;;1.63;1.35;;;;;;;2.35;61.03;96651.47;5096319;28;20101;-65
2023/03/17 04:05:16;;;;;;;2.15;1.30;;;;;;;2.39;60.96;96652.31;5096179;28;20052;-66
2023/03/17 04:07:43;;;;;;;2.25;1.30;;;;;;;2.40;60.55;96659.19;5096259;28;20097;-66
2023/03/17 04:10:12;;;;;;;2.00;1.40;;;;;;;2.39;60.51;96658.34;5096377;28;20131;-66
2023/03/17 04:12:39;;;;;;;3.58;1.92;;;;;;;2.37;60.58;96661.78;5096049;28;20047;-64
2023/03/17 04:15:10;;;;;;;2.42;1.60;;;;;;;2.36;60.26;96658.34;5096119;28;20502;-62
2023/03/17 04:17:37;;;;;;;;;;;;;;;2.36;60.82;96671.28;5096482;28;20075;-63
2023/03/17 04:20:06;;;;;;;3.80;1.33;;;;;;;2.33;59.79;96681.59;5095915;28;20392;-66
2023/03/17 04:22:33;;;;;;;3.53;1.40;;;;;;;2.32;60.12;96677.28;5096071;28;20075;-63
2023/03/17 04:25:01;;;;;;;2.28;1.50;;;;;;;2.29;60.11;96679.91;5095839;28;20050;-62
2023/03/17 04:27:28;;;;;;;1.90;1.17;;;;;;;2.32;59.97;96687.63;5095801;28;20040;-65
2023/03/17 04:29:55;;;;;;;3.15;1.67;;;;;;;2.31;59.81;96682.44;5095923;28;20056;-66
2023/03/17 04:32:22;;;;;;;2.60;1.52;;;;;;;2.32;59.77;96679.03;5094687;28;20135;-65
2023/03/17 04:34:50;;;;;;;2.35;1.17;;;;;;;2.40;59.43;96688.47;5095735;28;20127;-64
2023/03/17 04:37:18;;;;;;;1.60;1.40;;;;;;;2.40;59.29;96691.03;5095610;28;20044;-65
2023/03/17 04:39:51;;;;;;;2.38;1.33;;;;;;;2.48;59.41;96690.16;5095440;28;20087;-65
2023/03/17 04:42:18;;;;;;;2.88;1.67;;;;;;;2.43;59.18;96692.75;5095427;28;20047;-64
2023/03/17 04:44:45;;;;;;;2.65;1.50;;;;;;;2.45;59.45;96701.38;5095451;28;20054;-65
2023/03/17 04:47:13;;;;;;;2.00;1.08;;;;;;;2.42;59.17;96698.78;5095560;28;20496;-63
2023/03/17 04:49:40;;;;;;;2.60;1.20;;;;;;;2.39;59.17;96699.66;5095241;28;20052;-63
2023/03/17 04:52:07;;;;;;;1.77;1.30;;;;;;;2.37;59.34;96700.50;5095278;28;20044;-63
2023/03/17 04:54:36;;;;;;;3.60;1.38;;;;;;;2.39;58.89;96703.97;5095371;28;20460;-65
2023/03/17 04:57:04;;;;;;;5.25;1.67;;;;;;;2.45;59.50;96714.28;5095280;28;20044;-63
2023/03/17 04:59:31;;;;;;;2.35;1.23;;;;;;;2.44;58.97;96709.13;5095374;28;20117;-63
2023/03/17 05:01:58;;;;;;;2.65;1.23;;;;;;;2.40;59.45;96713.41;5095138;28;20040;-63
2023/03/17 05:04:25;;;;;;;2.85;1.70;;;;;;;2.46;58.96;96720.28;5095112;28;20048;-66
2023/03/17 05:06:53;;;;;;;1.52;1.20;;;;;;;2.47;58.60;96711.69;5094995;28;20059;-63
2023/03/17 05:09:20;;;;;;;4.63;1.40;;;;;;;2.45;58.63;96722.03;5094987;28;20091;-63
2023/03/17 05:11:48;;;;;;;1.17;1.10;;;;;;;2.50;58.56;96729.75;5094920;28;20044;-67
2023/03/17 05:14:15;;;;;;;3.45;1.60;;;;;;;2.54;58.54;96734.06;5094890;28;20123;-62
2023/03/17 05:16:43;;;;;;;1.75;1.25;;;;;;;2.56;58.38;96732.31;5094865;28;20094;-63
2023/03/17 05:19:10;;;;;;;2.45;1.48;;;;;;;2.55;58.54;96730.59;5094698;28;20048;-66
2023/03/17 05:21:37;;;;;;;2.80;1.60;;;;;;;2.52;58.67;96741.81;5094681;28;20047;-64
2023/03/17 05:24:05;;;;;;;5.63;1.80;;;;;;;2.48;58.93;96759.88;5094814;28;20044;-64
2023/03/17 05:26:34;;;;;;;1.73;1.50;;;;;;;2.49;58.81;96756.44;5094694;28;20050;-64
2023/03/17 05:29:03;;;;;;;1.73;1.20;;;;;;;2.49;58.59;96746.97;5094737;28;20047;-64
2023/03/17 05:31:31;;;;;;;4.95;1.42;;;;;;;2.49;58.79;96752.13;5094521;28;20052;-67
2023/03/17 05:33:58;;;;;;;2.22;1.38;;;;;;;2.52;58.62;96754.72;5094681;28;20405;-66
2023/03/17 05:36:25;;;;;;;2.88;1.45;;;;;;;2.57;58.48;96765.03;5094485;28;20048;-63
2023/03/17 05:38:53;;;;;;;2.05;1.80;;;;;;;2.64;58.17;96764.16;5094362;28;20054;-64
2023/03/17 05:41:20;;;;;;;6.85;1.50;;;;;;;2.70;57.86;96770.16;5094444;28;20079;-65
2023/03/17 05:43:47;;;;;;;2.63;1.50;;;;;;;2.72;58.21;96761.56;5094180;28;20075;-63
2023/03/17 05:46:17;;;;;;;2.28;1.45;;;;;;;2.73;57.75;96757.22;5094309;28;20048;-62
2023/03/17 05:48:45;;;;;;;2.17;1.30;;;;;;;2.77;57.29;96766.72;5094278;28;20105;-65
2023/03/17 05:51:13;;;;;;;2.95;1.50;;;;;;;2.91;57.26;96779.56;5093860;28;20134;-66
2023/03/17 05:53:41;;;;;;;1.80;1.33;;;;;;;3.07;56.60;96775.19;5094181;28;20114;-66
2023/03/17 05:56:08;;;;;;;1.83;1.20;;;;;;;3.26;56.11;96780.28;5094166;28;20482;-63
2023/03/17 05:58:35;;;;;;;1.77;1.48;;;;;;;3.93;55.14;96779.88;5094161;28;20056;-66
2023/03/17 06:01:04;;;;;;;2.13;1.40;;;;;;;4.55;52.02;96786.25;5094165;28;20044;-62
2023/03/17 06:03:33;;;;;;;2.45;1.23;;;;;;;5.22;50.41;96784.63;5094033;28;20044;-63
2023/03/17 06:06:01;;;;;;;4.78;1.23;;;;;;;5.79;48.84;96788.19;5094004;28;20052;-63
2023/03/17 06:08:29;;;;;;;1.25;1.15;;;;;;;6.15;47.40;96795.47;5093889;28;20509;-64
2023/03/17 06:10:57;;;;;;;2.05;1.38;;;;;;;6.06;47.41;96789.50;5093846;28;20072;-64
2023/03/17 06:13:24;;;;;;;2.25;1.30;;;;;;;6.15;46.70;96805.84;5093808;28;20093;-66
2023/03/17 06:15:52;;;;;;;5.55;1.25;;;;;;;5.88;47.17;96794.97;5093809;28;20405;-61
2023/03/17 06:18:19;;;;;;;1.67;1.15;;;;;;;5.57;48.22;96807.50;5093584;28;20528;-63
2023/03/17 06:20:48;;;;;;;2.53;1.50;;;;;;;5.08;49.27;96809.00;5093619;28;20048;-63
2023/03/17 06:23:15;;;;;;;2.72;1.40;;;;;;;4.88;49.74;96815.25;5093627;28;20093;-63
2023/03/17 06:25:42;;;;;;;3.47;1.20;;;;;;;4.84;50.13;96823.09;5093665;28;20052;-66
2023/03/17 06:28:10;;;;;;;1.33;1.20;;;;;;;4.65;50.68;96813.78;5093675;28;20118;-65
2023/03/17 06:30:38;;;;;;;1.52;1.33;;;;;;;4.50;51.42;96824.28;5093521;28;20489;-67
2023/03/17 06:33:05;;;;;;;1.85;1.38;;;;;;;4.52;51.56;96825.13;5093454;28;20097;-64
2023/03/17 06:35:33;;;;;;;1.98;1.30;;;;;;;4.45;51.58;96826.06;5093410;28;20101;-62
2023/03/17 06:38:02;;;;;;;3.58;1.65;;;;;;;4.66;52.20;96833.63;5093466;28;20089;-65
2023/03/17 06:40:30;;;;;;;2.15;1.25;;;;;;;5.33;49.79;96819.09;5093386;28;20142;-64
2023/03/17 06:42:58;;;;;;;2.58;1.38;;;;;;;5.72;48.89;96833.28;5093425;28;20059;-64
2023/03/17 06:45:26;;;;;;;3.63;1.58;;;;;;;6.30;47.55;96825.53;5093371;28;20044;-63
2023/03/17 06:47:53;;;;;;;2.90;1.38;;;;;;;6.65;46.32;96828.41;5093482;28;20048;-63
2023/03/17 06:50:20;;;;;;;7.10;1.55;;;;;;;6.91;45.31;96827.94;5093031;28;20593;-65
2023/03/17 06:52:47;;;;;;;2.22;1.45;;;;;;;7.81;45.51;96838.28;5093273;28;20473;-64
2023/03/17 06:55:16;;;;;;;2.47;1.40;;;;;;;7.89;42.62;96832.03;5092654;28;20458;-64
2023/03/17 06:57:43;;;;;;;2.25;1.10;;;;;;;7.34;43.59;96822.75;5093213;28;20054;-64
2023/03/17 07:00:12;;;;;;;2.58;1.38;;;;;;;7.39;43.39;96830.47;5093101;28;20486;-64
2023/03/17 07:02:40;;;;;;;3.05;1.40;;;;;;;7.45;43.72;96823.41;5093103;28;20052;-64
2023/03/17 07:05:08;;;;;;;3.95;1.67;;;;;;;7.29;43.75;96833.25;5093223;28;20086;-62
2023/03/17 07:07:35;;;;;;;2.38;1.35;;;;;;;7.39;44.97;96838.28;5093085;28;20040;-63
2023/03/17 07:10:02;;;;;;;2.50;1.50;;;;;;;7.27;43.50;96834.19;5093097;28;20486;-62
2023/03/17 07:12:33;;;;;;;4.68;1.20;;;;;;;7.36;42.87;96843.56;5093038;28;20052;-65
2023/03/17 07:15:02;;;;;;;2.60;1.58;;;;;;;7.35;43.18;96847.91;5093034;28;20048;-65
2023/03/17 07:17:29;;;;;;;2.30;1.35;;;;;;;7.30;44.56;96848.00;5092955;28;20048;-64
2023/03/17 07:19:57;;;;;;;4.85;1.20;;;;;;;7.21;43.41;96842.97;5092828;28;20557;-62
2023/03/17 07:22:24;;;;;;;4.50;1.50;;;;;;;7.15;43.51;96848.31;5093014;28;20075;-63
2023/03/17 07:24:51;;;;;;;1.95;1.17;;;;;;;7.20;43.22;96868.13;5093012;28;20079;-64
2023/03/17 07:27:18;;;;;;;2.05;1.08;;;;;;;6.90;43.82;96857.44;5092987;28;20127;-62
2023/03/17 07:29:48;;;;;;;1.20;0.95;;;;;;;6.52;43.99;96844.22;5093127;28;20076;-65
2023/03/17 07:32:15;;;;;;;3.05;1.30;;;;;;;6.61;44.65;96839.72;5092836;28;20503;-63
2023/03/17 07:34:43;;;;;;;3.05;1.35;;;;;;;6.83;43.93;96843.69;5093186;28;20406;-64
2023/03/17 07:37:11;;;;;;;4.15;1.20;;;;;;;7.02;44.60;96858.97;5092783;28;20056;-64
2023/03/17 07:39:38;;;;;;;2.28;1.30;;;;;;;7.24;43.28;96853.34;5092767;28;20063;-64
2023/03/17 07:42:06;;;;;;;2.30;1.73;;;;;;;7.31;43.48;96847.13;5092795;28;20478;-62
2023/03/17 07:44:33;;;;;;;2.42;1.13;;;;;;;7.40;42.60;96847.81;5092892;28;20379;-62
2023/03/17 07:47:01;;;;;;;1.95;1.30;;;;;;;7.54;43.10;96845.78;5092697;28;20087;-61
2023/03/17 07:49:29;;;;;;;3.13;1.58;;;;;;;7.49;41.98;96836.38;5092644;28;20058;-61
2023/03/17 07:51:56;;;;;;;2.00;1.05;;;;;;;7.84;41.56;96840.81;5092804;28;20070;-62
2023/03/17 07:54:24;;;;;;;4.45;1.27;;;;;;;7.75;42.02;96845.34;5092660;28;20551;-64
2023/03/17 07:56:51;;;;;;;1.90;1.20;;;;;;;7.59;41.86;96838.72;5092690;28;20408;-63
2023/03/17 07:59:19;;;;;;;3.53;1.42;;;;;;;7.65;42.21;96827.31;5092637;28;20051;-63
2023/03/17 08:01:46;;;;;;;2.08;1.27;;;;;;;7.65;42.54;96839.50;5092598;28;20140;-64
2023/03/17 08:04:15;;;;;;;2.22;1.38;;;;;;;7.75;41.95;96842.75;5092537;28;20097;-66
2023/03/17 08:06:42;;;;;;;3.00;1.58;;;;;;;8.12;41.38;96828.06;5094989;28;20044;-63
2023/03/17 08:09:11;;;;;;;1.85;1.30;;;;;;;8.30;41.24;96844.97;5096200;28;20047;-63
2023/03/17 08:11:39;;;;;;;2.13;1.33;;;;;;;8.49;41.53;96850.59;5096192;28;20566;-66
2023/03/17 08:14:06;;;;;;;3.05;1.40;;;;;;;8.67;40.52;96838.03;5096185;28;20521;-65
2023/03/17 08:16:34;;;;;;;1.65;1.38;;;;;;;8.25;40.42;96876.34;5096173;28;20044;-64
2023/03/17 08:19:02;;;;;;;3.75;1.58;;;;;;;7.99;41.97;96845.69;5096104;28;20410;-63
2023/03/17 08:21:31;;;;;;;1.95;1.45;;;;;;;7.34;42.77;96830.56;5096025;28;20127;-62
2023/03/17 08:23:58;;;;;;;1.90;1.67;;;;;;;7.57;43.76;96830.09;5096131;28;20139;-65
2023/03/17 08:26:25;;;;;;;3.88;1.75;;;;;;;8.19;42.63;96845.25;5096078;28;20390;-66
2023/03/17 08:28:53;;;;;;;1.95;1.50;;;;;;;8.20;42.95;96841.75;5096019;28;20472;-63
2023/03/17 08:31:22;;;;;;;4.85;1.80;;;;;;;8.16;42.03;96843.56;5095928;28;20040;-64
2023/03/17 08:33:51;;;;;;;3.35;2.33;;;;;;;8.09;42.76;96835.03;5095826;28;20048;-65
2023/03/17 08:36:19;;;;;;;3.42;1.88;;;;;;;8.16;42.62;96847.94;5095725;28;20044;-63
2023/03/17 08:38:49;;;;;;;1.95;1.58;;;;;;;8.11;42.54;96860.19;5095708;28;20055;-63
2023/03/17 08:41:18;;;;;;;1.85;1.45;;;;;;;7.55;44.12;96855.31;5095582;28;20047;-63
2023/03/17 08:43:46;;;;;;;3.90;2.00;;;;;;;7.10;45.47;96844.94;5095566;28;20056;-64
2023/03/17 08:46:16;;;;;;;2.53;2.13;;;;;;;7.46;45.59;96853.75;5095578;28;20052;-65
2023/03/17 08:48:44;;;;;;;3.40;1.85;;;;;;;7.97;45.18;96848.34;5095602;28;20076;-65
2023/03/17 08:51:12;;;;;;;3.78;2.22;;;;;;;8.08;43.59;96835.94;5095367;28;20052;-63
2023/03/17 08:53:40;;;;;;;2.58;1.80;;;;;;;7.93;44.36;96846.69;5095325;28;20044;-65
2023/03/17 08:56:09;;;;;;;2.88;2.25;;;;;;;8.03;45.69;96844.72;5095689;28;20044;-65
2023/03/17 08:58:39;;;;;;;3.70;2.10;;;;;;;7.83;43.78;96846.06;5095209;28;20094;-64
2023/03/17 09:01:07;;;;;;;3.08;2.03;;;;;;;7.46;43.70;96847.69;5095161;28;20539;-65
2023/03/17 09:03:35;;;;;;;2.58;2.20;;;;;;;7.43;44.55;96840.81;5095137;28;20135;-66
2023/03/17 09:06:04;;;;;;;4.45;2.25;;;;;;;7.33;44.42;96849.69;5095080;28;20048;-64
2023/03/17 09:08:33;;;;;;;2.38;1.70;;;;;;;7.56;44.05;96850.97;5095111;28;20097;-67
2023/03/17 09:11:01;;;;;;;4.90;2.25;;;;;;;7.48;44.39;96852.84;5095077;28;20478;-64
2023/03/17 09:13:29;;;;;;;4.70;2.70;;;;;;;7.30;44.64;96853.22;5095042;28;20040;-64
2023/03/17 09:15:56;;;;;;;5.13;2.15;;;;;;;7.12;44.46;96848.34;5095002;28;20574;-64
2023/03/17 09:18:24;;;;;;;2.60;2.05;;;;;;;7.35;44.59;96850.53;5094383;28;20079;-64
2023/03/17 09:20:51;;;;;;;4.88;2.10;;;;;;;7.42;43.95;96839.09;5094763;28;20062;-64
2023/03/17 09:23:19;;;;;;;4.32;3.33;;;;;;;7.81;45.19;96848.69;5094970;28;20048;-65
2023/03/17 09:25:46;;;;;;;4.95;2.72;;;;;;;7.98;45.56;96844.84;5094965;28;20080;-62
2023/03/17 09:28:14;;;;;;;3.83;2.72;;;;;;;8.41;42.77;96842.13;5094739;28;20055;-66
2023/03/17 09:30:43;;;;;;;3.70;1.98;;;;;;;8.70;41.35;96864.88;5094777;28;20056;-63
2023/03/17 09:33:10;;;;;;;2.80;2.20;;;;;;;8.41;42.36;96847.34;5094772;28;20063;-62
2023/03/17 09:35:38;;;;;;;3.60;2.25;;;;;;;8.56;41.31;96848.75;5094641;28;20070;-65
2023/03/17 09:38:06;;;;;;;2.20;1.85;;;;;;;8.29;42.76;96851.97;5094657;28;20050;-67
2023/03/17 09:40:37;;;;;;;2.70;2.35;;;;;;;7.99;43.17;96863.94;5094344;28;20087;-65
2023/03/17 09:43:15;;;;;;;5.13;2.40;;;;;;;7.81;44.96;96851.31;5094547;28;20052;-64
2023/03/17 09:45:44;;;;;;;2.58;2.00;;;;;;;7.55;44.90;96831.88;5094266;28;20383;-64
2023/03/17 09:48:48;;;;;;;4.85;3.17;;;;;;;7.87;45.19;96834.66;5094397;28;20048;-63
2023/03/17 09:51:18;;;;;;;4.78;2.88;;;;;;;7.84;45.10;96825.19;5094162;28;20153;-61
2023/03/17 09:53:51;;;;;;;7.18;4.32;;;;;;;7.45;44.08;96840.78;5094224;28;20052;-66
2023/03/17 09:56:20;;;;;;;4.15;3.35;;;;;;;7.62;44.62;96835.22;5094207;28;20127;-63
2023/03/17 09:58:51;;;;;;;5.03;3.97;;;;;;;7.66;44.72;96834.25;5094335;28;20083;-65
2023/03/17 10:01:20;;;;;;;5.13;2.50;;;;;;;7.82;45.32;96839.97;5094055;28;20058;-65
2023/03/17 10:03:49;;;;;;;4.97;2.92;;;;;;;8.21;45.11;96830.41;5094085;28;20044;-67
2023/03/17 10:06:26;;;;;;;3.03;2.53;;;;;;;8.31;44.14;96838.88;5094199;28;20055;-64
2023/03/17 10:09:00;;;;;;;4.55;2.63;;;;;;;8.36;44.09;96831.78;5093951;28;20048;-62
2023/03/17 10:11:38;;;;;;;5.18;3.10;;;;;;;8.01;44.24;96838.72;5093965;28;20083;-66
2023/03/17 10:14:20;;;;;;;5.28;3.42;;;;;;;8.05;45.86;96841.22;5093812;28;20044;-67
2023/03/17 10:16:54;;;;;;;3.72;3.20;;;;;;;8.00;45.67;96848.28;5093912;28;20478;-66
2023/03/17 10:19:28;;;;;;;4.28;3.13;;;;;;;8.13;45.23;96840.19;5093831;28;20122;-66
2023/03/17 10:22:01;;;;;;;3.42;2.53;;;;;;;7.95;45.64;96834.50;5093753;28;20058;-64
2023/03/17 10:24:32;;;;;;;5.60;3.85;;;;;;;8.04;46.51;96843.84;5093670;28;20079;-62
2023/03/17 10:27:03;;;;;;;6.07;2.97;;;;;;;8.05;46.62;96833.41;5093780;28;20044;-65
2023/03/17 10:29:31;;;;;;;3.60;2.50;;;;;;;8.25;46.07;96842.47;5092901;28;20052;-65
2023/03/17 10:32:01;;;;;;;3.85;2.90;;;;;;;8.19;45.39;96840.03;5093631;28;20105;-66
2023/03/17 10:34:31;;;;;;;6.17;3.03;;;;;;;7.97;45.88;96844.00;5093723;28;20563;-65
2023/03/17 10:37:02;;;;;;;6.32;3.55;;;;;;;8.02;46.22;96838.69;5093649;28;20563;-66
2023/03/17 10:39:29;;;;;;;3.78;2.80;;;;;;;8.15;45.48;96839.25;5093432;28;20123;-66
2023/03/17 10:41:58;;;;;;;4.53;3.17;;;;;;;8.29;44.77;96836.31;5093406;28;20043;-66
2023/03/17 10:44:44;;;;;;;3.45;2.40;;;;;;;8.55;44.12;96840.06;5093407;28;20090;-66
2023/03/17 10:47:30;;;;;;;4.32;3.45;;;;;;;8.46;43.72;96835.88;5093239;28;20062;-64
2023/03/17 10:49:59;;;;;;;4.07;3.50;;;;;;;8.20;45.07;96836.53;5093130;28;20052;-62
2023/03/17 10:52:29;;;;;;;3.90;3.40;;;;;;;8.01;45.49;96831.72;5093476;28;20044;-63
2023/03/17 10:55:01;;;;;;;4.40;3.03;;;;;;;8.04;44.73;96833.44;5093202;28;20052;-67
2023/03/17 10:57:30;;;;;;;3.30;2.45;;;;;;;7.90;45.35;96828.53;5093268;28;20050;-62
2023/03/17 11:00:00;;;;;;;6.63;3.97;;;;;;;7.83;44.83;96812.19;5093013;28;20046;-66
2023/03/17 11:02:30;;;;;;;3.50;2.40;;;;;;;7.88;44.89;96810.34;5093277;28;20048;-62
2023/03/17 11:05:03;;;;;;;4.13;2.92;;;;;;;8.07;44.42;96815.13;5093184;28;20287;-66
2023/03/17 11:07:37;;;;;;;3.42;2.33;;;;;;;8.13;44.43;96817.56;5093074;28;20059;-63
2023/03/17 11:10:14;;;;;;;5.75;3.75;;;;;;;8.02;45.11;96827.38;5093236;28;20119;-62
2023/03/17 11:12:42;;;;;;;9.35;5.25;;;;;;;7.85;45.05;96818.22;5093092;28;20044;-65
2023/03/17 11:15:15;;;;;;;3.40;2.47;;;;;;;7.87;45.43;96813.84;5093101;28;20140;-63
2023/03/17 11:17:51;;;;;;;3.47;2.03;;;;;;;7.68;45.34;96816.00;5093077;28;20075;-64
2023/03/17 11:20:44;;;;;;;6.57;4.10;;;;;;;7.93;46.34;96807.63;5093026;28;20048;-65
2023/03/17 11:23:23;;;;;;;3.03;2.30;;;;;;;8.06;45.60;96813.41;5089565;28;20044;-67
2023/03/17 11:26:01;;;;;;;3.38;2.10;;;;;;;8.29;44.49;96804.19;5093001;28;20052;-66
2023/03/17 11:28:35;;;;;;;2.88;2.10;;;;;;;8.51;45.03;96821.88;5093001;28;20044;-61
2023/03/17 11:31:11;;;;;;;3.58;2.10;;;;;;;8.79;43.01;96816.84;5092920;28;20565;-64
2023/03/17 11:33:50;;;;;;;2.28;2.03;;;;;;;8.81;42.51;96799.41;5092882;28;20413;-64
2023/03/17 11:36:35;;;;;;;2.83;2.28;;;;;;;8.90;43.36;96823.53;5092791;28;20143;-62
2023/03/17 11:39:10;;;;;;;2.35;2.10;;;;;;;8.50;43.26;96812.34;5092886;28;20064;-63
2023/03/17 11:41:51;;;;;;;2.90;2.30;;;;;;;8.21;43.84;96818.25;5095129;28;20109;-64
2023/03/17 11:44:50;;;;;;;2.50;2.20;;;;;;;8.12;44.19;96805.44;5096706;28;20210;-62
2023/03/17 11:47:35;;;;;;;3.78;2.13;;;;;;;8.15;43.86;96796.69;5096809;28;20128;-65
2023/03/17 11:50:15;;;;;;;2.45;2.20;;;;;;;8.25;43.81;96795.56;5096343;28;20052;-62
2023/03/17 11:52:55;;;;;;;3.63;2.78;;;;;;;8.31;43.45;96808.44;5096597;28;20040;-63